Time;durP1;ratioP1;P1;durP2;ratioP2;P2;SDS_P1;SDS_P2;PMS_P1;PMS_P2;Temp;Humidity;BMP_temperature;BMP_pressure;BME280_temperature;BME280_humidity;BME280_pressure;Samples;Min_cycle;Max_cycle;Signal;HPM_P1;HPM_P2
2023/11/18 00:01:32;;;;;;;7.05;3.97;;;7.60;99.90;;;;;;4960999;28;20101;-67
2023/11/18 00:03:58;;;;;;;10.05;5.13;;;7.60;99.90;;;;;;4935476;28;20093;-67
2023/11/18 00:06:24;;;;;;;5.75;4.03;;;7.60;99.90;;;;;;4961233;28;20035;-67
2023/11/18 00:08:50;;;;;;;8.18;4.68;;;7.50;99.90;;;;;;4958813;28;20114;-67
2023/11/18 00:11:16;;;;;;;9.57;4.13;;;7.50;99.90;;;;;;4963398;28;20034;-68
2023/11/18 00:13:42;;;;;;;5.53;4.15;;;7.60;99.90;;;;;;4959386;28;20118;-68
2023/11/18 00:16:12;;;;;;;6.50;4.03;;;7.50;99.90;;;;;;4962943;28;20153;-68
2023/11/18 00:18:41;;;;;;;5.95;4.35;;;7.50;99.90;;;;;;4959857;28;20078;-67
2023/11/18 00:21:07;;;;;;;8.63;5.03;;;7.60;99.90;;;;;;4961346;28;20178;-67
2023/11/18 00:23:34;;;;;;;6.50;4.53;;;7.50;99.90;;;;;;4962159;28;20038;-67
2023/11/18 00:26:00;;;;;;;7.75;4.65;;;7.50;99.90;;;;;;4959808;28;20043;-67
2023/11/18 00:28:26;;;;;;;7.38;4.63;;;7.50;99.90;;;;;;4961541;28;20031;-67
2023/11/18 00:30:52;;;;;;;6.93;4.88;;;7.40;99.90;;;;;;4942862;28;20039;-67
2023/11/18 00:33:18;;;;;;;8.75;4.90;;;7.40;99.90;;;;;;4963961;28;20042;-67
2023/11/18 00:35:45;;;;;;;9.00;4.88;;;7.40;99.90;;;;;;4946992;28;20027;-68
2023/11/18 00:38:11;;;;;;;7.00;4.65;;;7.40;99.90;;;;;;4961792;28;20030;-67
2023/11/18 00:40:37;;;;;;;7.82;4.95;;;7.40;99.90;;;;;;4965327;28;20037;-67
2023/11/18 00:43:03;;;;;;;6.90;4.38;;;7.40;99.90;;;;;;4942799;28;20033;-67
2023/11/18 00:45:29;;;;;;;6.75;4.13;;;7.40;99.90;;;;;;4940741;28;20130;-68
2023/11/18 00:47:58;;;;;;;8.63;5.38;;;7.40;99.90;;;;;;4948229;28;20057;-67
2023/11/18 00:50:23;;;;;;;6.88;4.45;;;7.50;99.90;;;;;;4961293;28;20034;-66
2023/11/18 00:52:49;;;;;;;5.68;4.53;;;7.40;99.90;;;;;;4947322;28;20101;-65
2023/11/18 00:55:17;;;;;;;14.73;5.38;;;7.40;99.90;;;;;;4943152;28;20494;-65
2023/11/18 00:57:44;;;;;;;9.35;5.25;;;7.40;99.90;;;;;;4959903;28;20037;-67
2023/11/18 01:00:26;;;;;;;7.57;4.93;;;7.40;99.90;;;;;;4942874;28;20035;-68
2023/11/18 01:02:54;;;;;;;9.13;5.18;;;7.40;99.90;;;;;;4944616;28;20608;-67
2023/11/18 01:05:21;;;;;;;8.70;5.18;;;7.50;99.90;;;;;;4964019;28;20030;-68
2023/11/18 01:07:46;;;;;;;8.15;5.30;;;7.40;99.90;;;;;;4949746;28;20073;-67
2023/11/18 01:10:13;;;;;;;7.75;4.90;;;7.40;99.90;;;;;;4948714;28;20660;-67
2023/11/18 01:12:39;;;;;;;9.20;5.03;;;7.40;99.90;;;;;;4961557;28;20049;-67
2023/11/18 01:15:07;;;;;;;10.05;5.40;;;7.40;99.90;;;;;;4949636;28;20090;-67
2023/11/18 01:17:33;;;;;;;9.07;4.78;;;7.40;99.90;;;;;;4944702;28;20034;-65
2023/11/18 01:20:01;;;;;;;8.40;4.85;;;7.40;99.90;;;;;;4947846;28;20111;-65
2023/11/18 01:22:26;;;;;;;7.13;4.97;;;7.40;99.90;;;;;;4945557;28;20034;-65
2023/11/18 01:24:53;;;;;;;7.57;4.82;;;7.50;99.90;;;;;;4947687;28;20042;-65
2023/11/18 01:27:20;;;;;;;7.60;5.25;;;7.50;99.90;;;;;;4946408;28;20399;-65
2023/11/18 01:29:49;;;;;;;7.63;4.35;;;7.40;99.90;;;;;;4939538;28;20640;-65
2023/11/18 01:32:15;;;;;;;9.05;5.07;;;7.40;99.90;;;;;;4965170;28;20101;-65
2023/11/18 01:34:43;;;;;;;7.43;4.93;;;7.40;99.90;;;;;;4946234;28;20447;-65
2023/11/18 01:37:09;;;;;;;6.80;4.85;;;7.40;99.90;;;;;;4945893;28;20506;-66
2023/11/18 01:39:35;;;;;;;7.82;5.18;;;7.40;99.90;;;;;;4958742;28;20038;-65
2023/11/18 01:42:04;;;;;;;9.00;5.03;;;7.40;99.90;;;;;;4959918;28;20167;-65
2023/11/18 01:44:31;;;;;;;8.25;4.90;;;7.40;99.90;;;;;;4958227;28;20023;-65
2023/11/18 01:46:57;;;;;;;7.13;4.40;;;7.40;99.90;;;;;;4958841;28;20063;-65
2023/11/18 01:49:29;;;;;;;6.90;4.90;;;7.50;99.90;;;;;;4943690;28;20023;-65
2023/11/18 01:51:56;;;;;;;6.57;4.53;;;7.50;99.90;;;;;;4959043;28;20035;-65
2023/11/18 01:54:23;;;;;;;8.05;4.57;;;7.50;99.90;;;;;;4963033;28;20466;-65
2023/11/18 01:56:55;;;;;;;9.63;4.70;;;7.40;99.90;;;;;;4944189;28;20069;-65
2023/11/18 01:59:21;;;;;;;8.82;5.32;;;7.40;99.90;;;;;;4947190;28;20039;-66
2023/11/18 02:01:49;;;;;;;8.68;4.70;;;7.50;99.90;;;;;;4940195;28;20039;-67
2023/11/18 02:04:16;;;;;;;8.50;4.65;;;7.40;99.90;;;;;;4943199;28;20046;-67
2023/11/18 02:06:44;;;;;;;8.80;5.20;;;7.50;99.90;;;;;;4944921;28;20041;-67
2023/11/18 02:09:12;;;;;;;9.43;5.00;;;7.40;99.90;;;;;;4947165;28;20121;-67
2023/11/18 02:12:04;;;;;;;6.85;4.72;;;7.50;99.90;;;;;;4960060;28;20031;-67
2023/11/18 02:14:33;;;;;;;7.43;4.50;;;7.50;99.90;;;;;;4943333;28;20042;-67
2023/11/18 02:17:03;;;;;;;7.18;4.65;;;7.50;99.90;;;;;;4943511;28;20093;-67
2023/11/18 02:19:30;;;;;;;7.97;5.07;;;7.50;99.90;;;;;;4940959;28;20035;-67
2023/11/18 02:21:57;;;;;;;7.05;4.75;;;7.50;99.90;;;;;;4944021;28;20054;-67
2023/11/18 02:24:37;;;;;;;7.88;5.05;;;7.50;99.90;;;;;;4956050;28;20043;-67
2023/11/18 02:27:06;;;;;;;9.18;5.45;;;7.50;99.90;;;;;;4942330;28;20101;-67
2023/11/18 02:29:40;;;;;;;9.25;5.07;;;7.40;99.90;;;;;;4940822;28;20038;-67
2023/11/18 02:32:31;;;;;;;8.48;4.90;;;7.50;99.90;;;;;;4945501;28;20745;-67
2023/11/18 02:35:05;;;;;;;9.02;4.82;;;7.50;99.90;;;;;;4960996;28;20033;-67
2023/11/18 02:37:32;;;;;;;6.75;4.93;;;7.50;99.90;;;;;;4940966;28;20724;-67
2023/11/18 02:40:11;;;;;;;6.63;4.65;;;7.50;99.90;;;;;;4942964;28;20039;-68
2023/11/18 02:42:39;;;;;;;9.77;5.32;;;7.50;99.90;;;;;;4947325;28;20030;-67
2023/11/18 02:45:08;;;;;;;8.30;5.10;;;7.50;99.90;;;;;;4944298;28;20097;-67
2023/11/18 02:47:34;;;;;;;7.90;5.00;;;7.50;99.90;;;;;;4947109;28;20035;-67
2023/11/18 02:50:05;;;;;;;7.00;4.75;;;7.50;99.90;;;;;;4966297;28;20139;-67
2023/11/18 02:52:33;;;;;;;10.60;5.03;;;7.50;99.90;;;;;;4961084;28;20038;-67
2023/11/18 02:54:59;;;;;;;8.00;5.32;;;7.50;99.90;;;;;;4946572;28;20043;-65
2023/11/18 02:57:25;;;;;;;8.13;4.72;;;7.50;99.90;;;;;;4954886;28;20035;-65
2023/11/18 02:59:51;;;;;;;9.93;4.90;;;7.50;99.90;;;;;;4945013;28;20046;-65
2023/11/18 03:02:17;;;;;;;8.57;5.15;;;7.50;99.90;;;;;;4960916;28;20027;-65
2023/11/18 03:04:44;;;;;;;9.10;5.13;;;7.50;99.90;;;;;;4948020;28;20086;-65
2023/11/18 03:07:11;;;;;;;8.00;5.25;;;7.50;99.90;;;;;;4966549;28;20031;-65
2023/11/18 03:09:39;;;;;;;8.52;4.55;;;7.50;99.90;;;;;;4944521;28;20030;-65
2023/11/18 03:12:07;;;;;;;7.45;4.38;;;7.50;99.90;;;;;;4963045;28;20043;-65
2023/11/18 03:14:34;;;;;;;9.85;5.40;;;7.50;99.90;;;;;;4961283;28;20049;-65
2023/11/18 03:17:01;;;;;;;7.72;5.00;;;7.50;99.90;;;;;;4961667;28;20137;-65
2023/11/18 03:19:29;;;;;;;8.68;5.15;;;7.50;99.90;;;;;;4962225;28;20438;-65
2023/11/18 03:21:55;;;;;;;8.85;5.15;;;7.60;99.90;;;;;;4963040;28;20030;-65
2023/11/18 03:24:21;;;;;;;8.88;4.97;;;7.50;99.90;;;;;;4944061;28;20089;-67
2023/11/18 03:26:48;;;;;;;6.50;4.00;;;7.50;99.90;;;;;;4948693;28;20529;-67
2023/11/18 03:29:14;;;;;;;8.63;5.60;;;7.50;99.90;;;;;;4949426;28;20039;-67
2023/11/18 03:31:44;;;;;;;10.68;6.53;;;7.50;99.90;;;;;;4964287;28;20095;-67
2023/11/18 03:34:10;;;;;;;10.13;5.20;;;7.50;99.90;;;;;;4958629;28;20066;-67
2023/11/18 03:36:36;;;;;;;9.65;5.20;;;7.50;99.90;;;;;;4964117;28;20030;-67
2023/11/18 03:39:01;;;;;;;8.68;4.72;;;7.50;99.90;;;;;;4958914;28;20522;-67
2023/11/18 03:41:27;;;;;;;13.35;5.68;;;7.50;99.90;;;;;;4962495;28;20106;-67
2023/11/18 03:43:53;;;;;;;11.30;5.15;;;7.50;99.90;;;;;;4962706;28;20125;-67
2023/11/18 03:46:19;;;;;;;9.90;5.47;;;7.40;99.90;;;;;;4947364;28;20041;-67
2023/11/18 03:48:46;;;;;;;10.68;5.78;;;7.40;99.90;;;;;;4961264;28;20023;-67
2023/11/18 03:51:11;;;;;;;9.48;4.85;;;7.50;99.90;;;;;;4963346;28;20023;-67
2023/11/18 03:53:37;;;;;;;8.18;4.88;;;7.40;99.90;;;;;;4964909;28;20038;-67
2023/11/18 03:56:03;;;;;;;10.07;5.55;;;7.40;99.90;;;;;;4948204;28;20455;-67
2023/11/18 03:58:32;;;;;;;8.35;4.63;;;7.40;99.90;;;;;;4950084;28;20078;-67
2023/11/18 04:00:59;;;;;;;7.80;5.05;;;7.40;99.90;;;;;;4948428;28;20034;-67
2023/11/18 04:03:25;;;;;;;8.27;4.57;;;7.40;99.90;;;;;;4943450;28;20125;-65
2023/11/18 04:05:51;;;;;;;8.38;5.13;;;7.40;99.90;;;;;;4959972;28;20135;-66
2023/11/18 04:08:17;;;;;;;8.48;4.93;;;7.40;99.90;;;;;;4944150;28;20034;-66
2023/11/18 04:10:43;;;;;;;10.65;4.82;;;7.40;99.90;;;;;;4962234;28;20031;-66
2023/11/18 04:13:10;;;;;;;6.65;4.07;;;7.40;99.90;;;;;;4962818;28;20030;-66
2023/11/18 04:15:36;;;;;;;9.25;4.80;;;7.40;99.90;;;;;;4963474;28;20031;-66
2023/11/18 04:18:02;;;;;;;8.48;4.90;;;7.40;99.90;;;;;;4952930;28;20089;-66
2023/11/18 04:20:29;;;;;;;7.63;4.63;;;7.40;99.90;;;;;;4944137;28;20035;-66
2023/11/18 04:22:54;;;;;;;9.10;5.07;;;7.40;99.90;;;;;;4947851;28;20745;-66
2023/11/18 04:25:21;;;;;;;9.27;5.03;;;7.40;99.90;;;;;;4965775;28;20387;-66
2023/11/18 04:27:47;;;;;;;8.75;4.55;;;7.50;99.90;;;;;;4959844;28;20023;-66
2023/11/18 04:30:13;;;;;;;8.45;4.90;;;7.40;99.90;;;;;;4944882;28;20105;-66
2023/11/18 04:32:39;;;;;;;9.75;4.70;;;7.40;99.90;;;;;;4948871;28;20053;-66
2023/11/18 04:35:09;;;;;;;7.53;4.55;;;7.40;99.90;;;;;;4960723;28;20031;-66
2023/11/18 04:37:35;;;;;;;11.75;5.90;;;7.40;99.90;;;;;;4965110;28;20121;-66
2023/11/18 04:40:03;;;;;;;12.70;5.75;;;7.40;99.90;;;;;;4958434;28;20038;-66
2023/11/18 04:42:29;;;;;;;11.52;6.07;;;7.40;99.90;;;;;;4960894;28;20058;-66
2023/11/18 04:44:57;;;;;;;10.70;5.50;;;7.40;99.90;;;;;;4960282;28;20190;-66
2023/11/18 04:47:24;;;;;;;11.60;6.60;;;7.40;99.90;;;;;;4942250;28;20030;-66
2023/11/18 04:49:51;;;;;;;8.90;5.60;;;7.40;99.90;;;;;;4957157;28;20031;-66
2023/11/18 04:52:18;;;;;;;8.93;5.35;;;7.40;99.90;;;;;;4961790;28;20209;-66
2023/11/18 04:54:47;;;;;;;11.38;6.15;;;7.40;99.90;;;;;;4962081;28;20521;-66
2023/11/18 04:57:14;;;;;;;14.18;6.78;;;7.40;99.90;;;;;;4959688;28;20473;-66
2023/11/18 04:59:41;;;;;;;9.07;5.85;;;7.40;99.90;;;;;;4961704;28;20660;-66
2023/11/18 05:02:07;;;;;;;9.88;4.97;;;7.40;99.90;;;;;;4959609;28;20154;-66
2023/11/18 05:04:32;;;;;;;10.98;5.88;;;7.40;99.90;;;;;;4946821;28;20518;-66
2023/11/18 05:06:59;;;;;;;10.27;5.20;;;7.40;99.90;;;;;;4941575;28;20058;-66
2023/11/18 05:09:25;;;;;;;9.68;5.15;;;7.40;99.90;;;;;;4956439;28;20027;-66
2023/11/18 05:11:52;;;;;;;11.15;5.35;;;7.40;99.90;;;;;;4959282;28;20187;-66
2023/11/18 05:14:18;;;;;;;9.15;5.40;;;7.40;99.90;;;;;;4959991;28;20141;-66
2023/11/18 05:16:44;;;;;;;10.02;5.50;;;7.40;99.90;;;;;;4961999;28;20145;-66
2023/11/18 05:19:10;;;;;;;8.23;4.72;;;7.40;99.90;;;;;;4959369;28;20051;-66
2023/11/18 05:21:37;;;;;;;9.52;4.75;;;7.40;99.90;;;;;;4957613;28;20047;-66
2023/11/18 05:24:03;;;;;;;8.88;5.20;;;7.40;99.90;;;;;;4960355;28;20127;-66
2023/11/18 05:26:29;;;;;;;11.52;5.15;;;7.40;99.90;;;;;;4959062;28;20069;-66
2023/11/18 05:28:55;;;;;;;8.18;5.00;;;7.30;99.90;;;;;;4965268;28;20118;-66
2023/11/18 05:31:20;;;;;;;8.23;4.85;;;7.40;99.90;;;;;;4958031;28;20027;-66
2023/11/18 05:33:51;;;;;;;10.45;5.60;;;7.30;99.90;;;;;;4963466;28;20035;-66
2023/11/18 05:36:26;;;;;;;8.15;4.78;;;7.30;99.90;;;;;;4961113;28;20030;-66
2023/11/18 05:38:53;;;;;;;9.20;5.45;;;7.30;99.90;;;;;;4957735;28;20042;-66
2023/11/18 05:41:27;;;;;;;13.98;5.50;;;7.30;99.90;;;;;;4962572;28;20031;-66
2023/11/18 05:43:56;;;;;;;9.35;4.80;;;7.30;99.90;;;;;;4959513;28;20145;-66
2023/11/18 05:46:25;;;;;;;11.32;4.57;;;7.30;99.90;;;;;;4961237;28;20042;-66
2023/11/18 05:48:52;;;;;;;8.80;4.68;;;7.20;99.90;;;;;;4961762;28;20092;-66
2023/11/18 05:51:26;;;;;;;9.25;5.38;;;7.30;99.90;;;;;;4964128;28;20102;-66
2023/11/18 05:53:53;;;;;;;10.98;5.50;;;7.30;99.90;;;;;;4959884;28;20143;-66
2023/11/18 05:56:22;;;;;;;7.47;4.70;;;7.30;99.90;;;;;;4959344;28;20031;-66
2023/11/18 05:58:48;;;;;;;8.15;4.60;;;7.30;99.90;;;;;;4960036;28;20039;-66
2023/11/18 06:01:16;;;;;;;8.73;4.60;;;7.30;99.90;;;;;;4957568;28;20780;-66
2023/11/18 06:03:42;;;;;;;9.50;4.85;;;7.20;99.90;;;;;;4961809;28;20539;-66
2023/11/18 06:06:10;;;;;;;10.77;5.60;;;7.30;99.90;;;;;;4956778;28;20488;-66
2023/11/18 06:08:40;;;;;;;10.23;5.05;;;7.30;99.90;;;;;;4963140;28;20031;-66
2023/11/18 06:11:12;;;;;;;9.00;5.22;;;7.30;99.90;;;;;;4956187;28;20110;-66
2023/11/18 06:13:47;;;;;;;7.88;4.57;;;7.20;99.90;;;;;;4960872;28;20027;-66
2023/11/18 06:16:14;;;;;;;8.25;4.63;;;7.20;99.90;;;;;;4958916;28;20023;-66
2023/11/18 06:18:44;;;;;;;8.65;4.05;;;7.20;99.90;;;;;;4961010;28;20462;-66
2023/11/18 06:21:18;;;;;;;8.52;5.05;;;7.20;99.90;;;;;;4960147;28;20035;-66
2023/11/18 06:23:48;;;;;;;10.15;5.28;;;7.20;99.90;;;;;;4964126;28;20042;-66
2023/11/18 06:26:14;;;;;;;9.15;4.28;;;7.20;99.90;;;;;;4946533;28;20035;-66
2023/11/18 06:28:42;;;;;;;8.70;5.22;;;7.20;99.90;;;;;;4962343;28;20046;-66
2023/11/18 06:31:11;;;;;;;7.82;4.95;;;7.30;99.90;;;;;;4966283;28;20030;-66
2023/11/18 06:33:42;;;;;;;9.35;5.50;;;7.20;99.90;;;;;;4965116;28;20086;-66
2023/11/18 06:36:14;;;;;;;11.90;6.90;;;7.20;99.90;;;;;;4966087;28;20118;-66
2023/11/18 06:38:41;;;;;;;9.73;5.68;;;7.20;99.90;;;;;;4961913;28;20031;-66
2023/11/18 06:41:13;;;;;;;11.73;5.93;;;7.20;99.90;;;;;;4964457;28;20403;-66
2023/11/18 06:44:17;;;;;;;14.57;7.68;;;7.20;99.90;;;;;;4960223;28;20033;-66
2023/11/18 06:46:39;;;;;;;20.00;14.07;;;7.10;99.90;;;;;;4961406;28;20069;-66
2023/11/18 06:49:07;;;;;;;14.73;10.02;;;7.10;99.90;;;;;;4963656;28;20807;-66
2023/11/18 06:51:35;;;;;;;12.73;8.32;;;7.10;99.90;;;;;;4963282;28;20039;-66
2023/11/18 06:54:13;;;;;;;16.75;10.65;;;7.10;99.90;;;;;;4961054;28;20041;-66
2023/11/18 06:56:43;;;;;;;21.35;13.25;;;7.10;99.90;;;;;;4967693;28;20047;-66
2023/11/18 06:59:12;;;;;;;23.55;15.10;;;7.20;99.90;;;;;;4964076;28;20030;-66
2023/11/18 07:01:40;;;;;;;17.80;10.40;;;7.20;99.90;;;;;;4961222;28;20035;-66
2023/11/18 07:04:09;;;;;;;17.55;10.68;;;7.20;99.90;;;;;;4962708;28;20042;-66
2023/11/18 07:06:39;;;;;;;16.63;10.70;;;7.20;99.90;;;;;;4964111;28;20032;-66
2023/11/18 07:09:12;;;;;;;14.38;7.13;;;7.20;99.90;;;;;;4961983;28;20137;-66
2023/11/18 07:11:41;;;;;;;16.35;8.50;;;7.20;99.90;;;;;;4959445;28;20047;-66
2023/11/18 07:14:09;;;;;;;18.77;11.13;;;7.20;99.90;;;;;;4964731;28;20069;-66
2023/11/18 07:16:35;;;;;;;27.08;15.65;;;7.20;99.90;;;;;;4947449;28;20612;-66
2023/11/18 07:19:03;;;;;;;21.10;11.20;;;7.20;99.90;;;;;;4965516;28;20031;-66
2023/11/18 07:21:29;;;;;;;26.17;13.25;;;7.30;99.90;;;;;;4960706;28;20109;-66
2023/11/18 07:23:56;;;;;;;26.08;11.48;;;7.20;99.90;;;;;;4962160;28;20028;-66
2023/11/18 07:26:23;;;;;;;24.83;11.35;;;7.20;99.90;;;;;;4963813;28;20030;-66
2023/11/18 07:28:51;;;;;;;23.38;10.63;;;7.20;99.90;;;;;;4961166;28;20451;-66
2023/11/18 07:31:22;;;;;;;27.30;11.60;;;7.20;99.90;;;;;;4966470;28;20034;-66
2023/11/18 07:33:52;;;;;;;20.42;9.68;;;7.20;99.90;;;;;;4963301;28;20043;-66
2023/11/18 07:36:21;;;;;;;21.05;9.98;;;7.10;99.90;;;;;;4965088;28;20499;-65
2023/11/18 07:38:47;;;;;;;21.27;10.20;;;7.10;99.90;;;;;;4958285;28;20054;-66
2023/11/18 07:41:27;;;;;;;23.52;10.68;;;7.10;99.90;;;;;;4961139;28;20033;-66
2023/11/18 07:43:56;;;;;;;22.33;10.05;;;7.10;99.90;;;;;;4959871;28;20038;-65
2023/11/18 07:46:25;;;;;;;21.90;9.23;;;7.10;99.90;;;;;;4963007;28;20047;-66
2023/11/18 07:48:51;;;;;;;21.73;9.15;;;7.20;99.90;;;;;;4959227;28;20126;-66
2023/11/18 07:51:21;;;;;;;25.52;10.75;;;7.20;99.90;;;;;;4961432;28;20117;-66
2023/11/18 07:53:50;;;;;;;23.35;9.45;;;7.20;99.90;;;;;;4962130;28;20042;-66
2023/11/18 07:56:16;;;;;;;28.45;10.82;;;7.20;99.90;;;;;;4960246;28;20613;-66
2023/11/18 07:58:45;;;;;;;24.83;11.30;;;7.20;99.90;;;;;;4963155;28;20023;-66
2023/11/18 08:01:12;;;;;;;24.13;10.13;;;7.20;99.90;;;;;;4959736;28;20029;-66
2023/11/18 08:03:41;;;;;;;24.92;9.93;;;7.10;99.90;;;;;;4963183;28;20050;-66
2023/11/18 08:06:07;;;;;;;24.70;10.27;;;7.20;99.90;;;;;;4959768;28;20764;-66
2023/11/18 08:08:39;;;;;;;25.52;10.40;;;7.10;99.90;;;;;;4961394;28;20038;-66
2023/11/18 08:11:10;;;;;;;20.00;8.88;;;7.20;99.90;;;;;;4960130;28;20814;-66
2023/11/18 08:13:36;;;;;;;21.52;10.00;;;7.20;99.90;;;;;;4961874;28;20125;-66
2023/11/18 08:16:02;;;;;;;27.08;11.43;;;7.20;99.90;;;;;;4962588;28;20121;-66
2023/11/18 08:18:31;;;;;;;25.02;11.02;;;7.30;99.90;;;;;;4963511;28;20042;-66
2023/11/18 08:20:57;;;;;;;24.48;10.45;;;7.30;99.90;;;;;;4960166;28;20038;-66
2023/11/18 08:23:23;;;;;;;22.48;9.77;;;7.30;99.90;;;;;;4960481;28;20031;-66
2023/11/18 08:25:50;;;;;;;24.05;10.13;;;7.40;99.90;;;;;;4960012;28;20769;-66
2023/11/18 08:28:16;;;;;;;20.23;9.18;;;7.30;99.90;;;;;;4964497;28;20104;-66
2023/11/18 08:30:42;;;;;;;22.88;10.35;;;7.40;99.90;;;;;;4965243;28;20031;-66
2023/11/18 08:33:08;;;;;;;17.15;7.70;;;7.40;99.90;;;;;;4947717;28;20039;-65
2023/11/18 08:35:35;;;;;;;22.60;10.38;;;7.40;99.90;;;;;;4952402;28;20039;-66
2023/11/18 08:38:03;;;;;;;23.05;10.45;;;7.40;99.90;;;;;;4961008;28;20022;-66
2023/11/18 08:40:29;;;;;;;19.05;9.45;;;7.50;99.90;;;;;;4965238;28;20034;-66
2023/11/18 08:42:58;;;;;;;21.08;8.85;;;7.60;99.90;;;;;;4960236;28;20034;-66
2023/11/18 08:45:29;;;;;;;19.77;9.55;;;7.70;99.90;;;;;;4962057;28;20022;-66
2023/11/18 08:47:56;;;;;;;16.75;7.95;;;7.70;99.90;;;;;;4962334;28;20023;-66
2023/11/18 08:50:23;;;;;;;15.35;7.65;;;7.70;99.90;;;;;;4960178;28;20118;-65
2023/11/18 08:52:57;;;;;;;13.52;6.85;;;7.60;99.90;;;;;;4962127;28;20038;-66
2023/11/18 08:55:38;;;;;;;19.30;7.57;;;7.60;99.90;;;;;;4965080;28;20137;-67
2023/11/18 08:58:15;;;;;;;13.73;6.25;;;7.70;99.90;;;;;;4961696;28;20059;-66
2023/11/18 09:00:52;;;;;;;15.57;7.32;;;7.70;99.90;;;;;;4961087;28;20069;-66
2023/11/18 09:03:28;;;;;;;16.45;7.55;;;7.70;99.90;;;;;;4943186;28;20030;-66
2023/11/18 09:05:58;;;;;;;14.40;6.57;;;7.80;99.90;;;;;;4957944;28;20063;-66
2023/11/18 09:08:32;;;;;;;14.30;7.15;;;7.80;99.90;;;;;;4963358;28;20027;-66
2023/11/18 09:10:59;;;;;;;12.68;7.47;;;7.90;99.90;;;;;;4941625;28;20153;-66
2023/11/18 09:13:29;;;;;;;12.88;7.18;;;8.00;99.90;;;;;;4963733;28;20033;-66
2023/11/18 09:15:56;;;;;;;17.08;7.63;;;8.10;99.90;;;;;;4958530;28;20097;-66
2023/11/18 09:18:24;;;;;;;18.02;9.48;;;8.10;99.90;;;;;;4961253;28;20122;-66
2023/11/18 09:20:52;;;;;;;15.35;7.35;;;8.10;99.90;;;;;;4956758;28;20038;-65
2023/11/18 09:23:19;;;;;;;14.93;7.57;;;8.20;99.90;;;;;;4958071;28;20062;-65
2023/11/18 09:25:47;;;;;;;28.38;15.13;;;8.20;99.90;;;;;;4964070;28;20038;-65
2023/11/18 09:28:14;;;;;;;14.90;7.65;;;8.20;99.90;;;;;;4961575;28;20031;-65
2023/11/18 09:30:49;;;;;;;14.30;7.20;;;8.20;99.90;;;;;;4960303;28;20061;-66
2023/11/18 09:33:33;;;;;;;13.18;6.47;;;8.20;99.90;;;;;;4958609;28;20039;-65
2023/11/18 09:36:07;;;;;;;13.82;7.00;;;8.20;99.90;;;;;;4960585;28;20031;-66
2023/11/18 09:38:37;;;;;;;15.38;7.35;;;8.20;99.90;;;;;;4958063;28;20549;-66
2023/11/18 09:41:07;;;;;;;26.38;12.25;;;8.20;99.90;;;;;;4961439;28;20094;-66
2023/11/18 09:43:45;;;;;;;20.60;9.93;;;8.20;99.90;;;;;;4959416;28;20041;-65
2023/11/18 09:46:14;;;;;;;25.45;11.77;;;8.10;99.90;;;;;;4958897;28;20674;-66
2023/11/18 09:48:47;;;;;;;19.67;9.95;;;8.10;99.90;;;;;;4960637;28;20039;-65
2023/11/18 09:51:37;;;;;;;14.18;7.22;;;8.20;99.90;;;;;;4954769;28;20034;-66
2023/11/18 09:54:18;;;;;;;11.75;5.78;;;8.20;99.90;;;;;;4958357;28;20042;-67
2023/11/18 09:56:56;;;;;;;12.90;6.03;;;8.30;99.90;;;;;;4962688;28;20085;-65
2023/11/18 09:59:35;;;;;;;12.18;6.05;;;8.30;99.90;;;;;;4960511;28;20043;-66
2023/11/18 10:02:10;;;;;;;14.70;7.22;;;8.30;99.90;;;;;;4964287;28;20034;-66
2023/11/18 10:04:39;;;;;;;14.18;8.68;;;8.30;99.90;;;;;;4962728;28;20043;-67
2023/11/18 10:07:11;;;;;;;17.52;9.90;;;8.30;99.90;;;;;;4965452;28;20113;-66
2023/11/18 10:09:38;;;;;;;19.23;10.60;;;8.30;99.90;;;;;;4964823;28;20026;-67
2023/11/18 10:12:08;;;;;;;21.88;10.90;;;8.40;99.90;;;;;;4966300;28;20030;-66
2023/11/18 10:14:35;;;;;;;20.48;10.23;;;8.60;99.90;;;;;;4960397;28;20411;-67
2023/11/18 10:17:06;;;;;;;18.13;9.95;;;8.70;99.90;;;;;;4966120;28;20039;-67
2023/11/18 10:19:51;;;;;;;20.48;9.40;;;8.90;99.90;;;;;;4962393;28;20061;-66
2023/11/18 10:22:27;;;;;;;18.25;9.27;;;8.90;99.90;;;;;;4964558;28;20117;-66
2023/11/18 10:24:54;;;;;;;19.88;10.07;;;9.00;99.90;;;;;;4963305;28;20380;-67
2023/11/18 10:27:27;;;;;;;17.88;9.80;;;9.10;99.90;;;;;;4964636;28;20682;-67
2023/11/18 10:30:04;;;;;;;14.10;7.97;;;9.10;99.90;;;;;;4964064;28;20563;-67
2023/11/18 10:32:35;;;;;;;19.48;9.45;;;9.10;99.90;;;;;;4946465;28;20057;-67
2023/11/18 10:35:04;;;;;;;17.13;9.23;;;9.10;99.90;;;;;;4960697;28;20053;-67
2023/11/18 10:37:31;;;;;;;20.20;10.23;;;8.90;99.90;;;;;;4963563;28;20034;-66
2023/11/18 10:39:57;;;;;;;20.98;10.50;;;8.90;99.90;;;;;;4961984;28;20039;-66
2023/11/18 10:42:30;;;;;;;19.88;9.93;;;8.80;99.90;;;;;;4965033;28;20037;-66
2023/11/18 10:45:03;;;;;;;18.80;9.80;;;8.80;99.90;;;;;;4960645;28;20592;-66
2023/11/18 10:47:35;;;;;;;17.83;9.05;;;8.80;99.90;;;;;;4963872;28;20046;-67
2023/11/18 10:50:01;;;;;;;15.85;8.30;;;9.10;99.90;;;;;;4960339;28;20019;-66
2023/11/18 10:52:34;;;;;;;16.13;8.55;;;10.40;99.20;;;;;;4963113;28;20045;-67
2023/11/18 10:55:07;;;;;;;14.70;8.43;;;12.30;95.90;;;;;;4963260;28;20041;-67
2023/11/18 10:57:35;;;;;;;14.88;8.07;;;12.80;93.60;;;;;;4961653;28;20038;-67
2023/11/18 11:00:13;;;;;;;15.25;8.63;;;12.50;93.30;;;;;;4962890;28;20038;-67
2023/11/18 11:02:42;;;;;;;17.65;10.00;;;12.10;93.80;;;;;;4962568;28;20047;-67
2023/11/18 11:05:15;;;;;;;18.75;9.35;;;11.70;94.30;;;;;;4964071;28;20035;-67
2023/11/18 11:07:42;;;;;;;20.85;10.18;;;11.30;94.70;;;;;;4958616;28;20394;-66
2023/11/18 11:10:10;;;;;;;14.90;8.88;;;10.80;95.50;;;;;;4966085;28;20035;-67
2023/11/18 11:12:51;;;;;;;18.23;9.75;;;10.50;96.30;;;;;;4962579;28;20062;-67
2023/11/18 11:15:29;;;;;;;16.27;8.73;;;10.20;97.10;;;;;;4961949;28;20065;-67
2023/11/18 11:18:14;;;;;;;15.20;8.65;;;10.10;97.60;;;;;;4964226;28;20121;-66
2023/11/18 11:20:53;;;;;;;14.15;8.05;;;9.90;97.90;;;;;;4966093;28;20097;-66
2023/11/18 11:23:43;;;;;;;14.93;8.15;;;9.80;98.30;;;;;;4964031;28;20037;-67
2023/11/18 11:26:13;;;;;;;15.40;7.85;;;9.80;98.70;;;;;;4960856;28;20497;-68
2023/11/18 11:28:55;;;;;;;15.50;8.95;;;9.80;98.80;;;;;;4966350;28;20027;-67
2023/11/18 11:31:27;;;;;;;14.70;8.38;;;9.90;98.10;;;;;;4960289;28;20027;-67
2023/11/18 11:34:02;;;;;;;14.77;8.88;;;9.90;98.20;;;;;;4952889;28;20114;-67
2023/11/18 11:36:41;;;;;;;13.32;7.55;;;10.00;98.30;;;;;;4958678;28;20035;-67
2023/11/18 11:39:14;;;;;;;14.25;7.10;;;9.90;98.20;;;;;;4961228;28;20454;-67
2023/11/18 11:41:45;;;;;;;15.77;7.95;;;9.90;98.20;;;;;;4964020;28;20046;-67
2023/11/18 11:44:13;;;;;;;13.30;7.90;;;9.80;98.40;;;;;;4959755;28;20026;-67
2023/11/18 11:46:41;;;;;;;11.77;7.05;;;9.80;98.50;;;;;;4964378;28;20547;-67
2023/11/18 11:49:17;;;;;;;14.35;7.55;;;9.80;98.50;;;;;;4964555;28;20062;-67
2023/11/18 11:52:15;;;;;;;11.52;6.85;;;9.90;98.60;;;;;;4963006;28;20046;-67
2023/11/18 11:55:15;;;;;;;13.48;6.60;;;9.90;98.00;;;;;;4961199;28;20495;-66
2023/11/18 11:57:44;;;;;;;14.80;7.40;;;9.90;97.70;;;;;;4963160;28;20034;-67
2023/11/18 12:00:17;;;;;;;14.73;7.80;;;9.80;98.00;;;;;;4960350;28;20057;-67
2023/11/18 12:02:56;;;;;;;11.88;7.05;;;9.70;98.10;;;;;;4964794;28;20102;-67
2023/11/18 12:05:26;;;;;;;11.90;6.93;;;9.70;98.20;;;;;;4960926;28;20035;-67
2023/11/18 12:07:55;;;;;;;12.32;6.90;;;9.60;98.30;;;;;;4949820;28;20119;-67
2023/11/18 12:10:26;;;;;;;13.98;6.80;;;9.60;98.00;;;;;;4964743;28;20473;-67
2023/11/18 12:13:15;;;;;;;10.85;6.35;;;9.50;97.90;;;;;;4962549;28;20163;-67
2023/11/18 12:15:53;;;;;;;9.05;5.95;;;9.50;98.60;;;;;;4964038;28;20054;-67
2023/11/18 12:18:21;;;;;;;10.38;5.78;;;9.50;98.70;;;;;;4960740;28;20058;-67
2023/11/18 12:20:48;;;;;;;12.20;6.68;;;9.50;98.60;;;;;;4957998;28;20050;-67
2023/11/18 12:23:15;;;;;;;11.32;6.15;;;9.60;98.70;;;;;;4963567;28;20056;-67
2023/11/18 12:25:42;;;;;;;8.30;5.82;;;9.50;98.90;;;;;;4962917;28;20395;-67
2023/11/18 12:28:14;;;;;;;9.70;6.35;;;9.50;99.00;;;;;;4962130;28;20259;-67
2023/11/18 12:30:56;;;;;;;10.13;5.78;;;9.60;98.90;;;;;;4959878;28;20035;-66
2023/11/18 12:33:24;;;;;;;11.13;5.75;;;9.50;98.60;;;;;;4961919;28;20487;-66
2023/11/18 12:35:53;;;;;;;10.68;5.68;;;9.40;98.50;;;;;;4948508;28;20038;-65
2023/11/18 12:38:48;;;;;;;9.30;5.15;;;9.30;98.60;;;;;;4959798;28;20046;-67
2023/11/18 12:41:40;;;;;;;8.55;4.93;;;9.30;98.90;;;;;;4962114;28;20035;-68
2023/11/18 12:44:21;;;;;;;9.50;5.68;;;9.20;99.20;;;;;;4960393;28;20039;-67
2023/11/18 12:47:14;;;;;;;8.70;5.20;;;9.10;99.30;;;;;;4959934;28;20113;-68
2023/11/18 12:49:43;;;;;;;8.98;5.15;;;9.10;99.50;;;;;;4964125;28;20566;-68
2023/11/18 12:52:14;;;;;;;7.60;4.63;;;9.00;99.70;;;;;;4961033;28;20142;-68
2023/11/18 12:54:44;;;;;;;6.72;4.05;;;9.00;99.70;;;;;;4960512;28;20031;-68
2023/11/18 12:57:16;;;;;;;9.32;4.90;;;9.00;99.70;;;;;;4961706;28;20122;-68
2023/11/18 12:59:43;;;;;;;7.68;4.05;;;9.10;99.90;;;;;;4963997;28;20030;-67
2023/11/18 13:02:19;;;;;;;7.70;4.07;;;9.10;99.90;;;;;;4964462;28;20035;-67
2023/11/18 13:04:47;;;;;;;10.20;5.43;;;9.10;99.90;;;;;;4944403;28;20050;-66